Time;durP1;ratioP1;P1;durP2;ratioP2;P2;SDS_P1;SDS_P2;PMS_P1;PMS_P2;Temp;Humidity;BMP_temperature;BMP_pressure;BME280_temperature;BME280_humidity;BME280_pressure;Samples;Min_cycle;Max_cycle;Signal;HPM_P1;HPM_P2
2024/03/17 00:02:01;;;;;;;12.98;5.03;;;;;;;9.00;53.45;102403.88;4951798;28;96808;-84
2024/03/17 00:04:27;;;;;;;16.92;5.03;;;;;;;9.00;53.80;102405.56;4952043;28;97724;-84
2024/03/17 00:06:53;;;;;;;16.38;5.07;;;;;;;9.03;53.65;102409.19;4952588;28;99968;-84
2024/03/17 00:09:18;;;;;;;11.15;4.50;;;;;;;9.04;53.69;102405.78;4969155;28;96778;-84
2024/03/17 00:11:45;;;;;;;12.27;5.03;;;;;;;9.04;53.69;102403.19;4953099;28;96883;-84
2024/03/17 00:14:11;;;;;;;12.25;4.43;;;;;;;9.06;53.68;102405.84;4938855;28;100469;-84
2024/03/17 00:16:37;;;;;;;11.20;4.45;;;;;;;9.07;53.61;102400.72;4953213;28;100422;-84
2024/03/17 00:19:02;;;;;;;13.02;4.65;;;;;;;9.07;53.89;102389.41;4952286;28;96898;-83
2024/03/17 00:21:30;;;;;;;19.88;5.32;;;;;;;9.08;53.81;102391.19;4936860;28;96945;-83
2024/03/17 00:23:56;;;;;;;15.90;5.10;;;;;;;9.10;53.75;102393.03;4951634;28;100651;-83
2024/03/17 00:26:23;;;;;;;11.27;4.40;;;;;;;9.11;53.89;102387.00;4938371;28;99862;-83
2024/03/17 00:28:50;;;;;;;15.60;5.07;;;;;;;9.13;53.76;102389.69;4967898;28;97046;-83
2024/03/17 00:31:16;;;;;;;13.20;4.57;;;;;;;9.15;53.86;102380.22;4950820;28;96899;-84
2024/03/17 00:33:42;;;;;;;14.50;5.18;;;;;;;9.17;53.80;102383.75;4951778;28;99957;-84
2024/03/17 00:36:08;;;;;;;13.40;5.03;;;;;;;9.18;53.83;102380.34;4950506;28;100580;-84
2024/03/17 00:38:33;;;;;;;18.83;4.93;;;;;;;9.20;53.91;102385.59;4941661;28;96901;-84
2024/03/17 00:40:59;;;;;;;10.52;4.60;;;;;;;9.20;54.06;102383.00;4938976;28;97059;-83
2024/03/17 00:43:25;;;;;;;9.85;5.38;;;;;;;9.20;53.87;102376.09;4951940;28;100042;-84
2024/03/17 00:45:53;;;;;;;16.65;5.50;;;;;;;9.19;53.81;102376.91;4950341;28;99973;-84
2024/03/17 00:48:19;;;;;;;11.70;4.53;;;;;;;9.18;53.66;102380.34;4937305;28;96802;-84
2024/03/17 00:50:45;;;;;;;11.52;4.80;;;;;;;9.18;53.66;102371.63;4935594;28;96929;-84
2024/03/17 00:53:11;;;;;;;13.82;5.07;;;;;;;9.19;53.58;102381.22;4935633;28;100277;-84
2024/03/17 00:55:37;;;;;;;12.27;4.95;;;;;;;9.16;53.61;102376.75;4950531;28;100786;-83
2024/03/17 00:58:03;;;;;;;14.43;5.57;;;;;;;9.14;53.58;102378.41;4952040;28;96837;-84
2024/03/17 01:00:28;;;;;;;14.55;5.72;;;;;;;9.12;53.78;102378.34;4950994;28;96855;-84
2024/03/17 01:02:54;;;;;;;13.90;5.55;;;;;;;9.10;53.79;102373.91;4951376;28;101002;-84
2024/03/17 01:05:19;;;;;;;14.82;5.90;;;;;;;9.09;53.78;102366.91;4934545;28;99924;-84
2024/03/17 01:07:47;;;;;;;13.45;6.32;;;;;;;9.09;53.80;102361.72;4951707;28;97030;-84
2024/03/17 01:10:13;;;;;;;16.83;5.63;;;;;;;9.09;53.97;102365.22;4950930;28;96873;-83
2024/03/17 01:12:38;;;;;;;13.57;5.80;;;;;;;9.10;54.05;102360.91;4950903;28;100572;-83
2024/03/17 01:15:05;;;;;;;13.60;5.20;;;;;;;9.12;53.93;102361.84;4935787;28;100227;-83
2024/03/17 01:17:31;;;;;;;15.98;6.22;;;;;;;9.13;54.10;102353.22;4951976;28;96870;-84
2024/03/17 01:19:56;;;;;;;14.48;5.75;;;;;;;9.14;54.25;102355.00;4941417;28;96951;-83
2024/03/17 01:22:22;;;;;;;18.15;6.93;;;;;;;9.15;54.22;102351.56;4951227;28;97908;-83
2024/03/17 01:24:47;;;;;;;17.55;7.07;;;;;;;9.17;54.25;102349.91;4934893;28;99771;-83
2024/03/17 01:27:15;;;;;;;16.67;7.10;;;;;;;9.20;54.18;102350.06;4947609;28;97037;-84
2024/03/17 01:29:42;;;;;;;14.50;7.63;;;;;;;9.22;54.49;102345.81;4951167;28;97091;-83
2024/03/17 01:32:08;;;;;;;13.48;6.72;;;;;;;9.24;54.52;102338.94;4950769;28;100643;-83
2024/03/17 01:34:34;;;;;;;16.75;6.70;;;;;;;9.27;54.40;102333.88;4950741;28;99984;-83
2024/03/17 01:36:59;;;;;;;17.63;7.15;;;;;;;9.30;54.53;102330.50;4949069;28;96876;-83
2024/03/17 01:39:25;;;;;;;16.17;6.68;;;;;;;9.34;54.66;102327.22;4950533;28;96993;-84
2024/03/17 01:41:50;;;;;;;14.52;6.75;;;;;;;9.37;54.51;102321.22;4948374;28;100488;-83
2024/03/17 01:44:24;;;;;;;15.02;6.65;;;;;;;9.38;54.53;102313.47;4948667;28;99981;-84
2024/03/17 01:46:50;;;;;;;19.73;8.13;;;;;;;9.41;54.44;102313.63;4932207;28;96794;-84
2024/03/17 01:49:17;;;;;;;18.33;7.65;;;;;;;9.44;54.37;102320.66;4950252;28;96863;-84
2024/03/17 01:51:44;;;;;;;18.85;7.63;;;;;;;9.46;54.46;102317.25;4948193;28;100192;-84
2024/03/17 01:54:10;;;;;;;18.27;7.47;;;;;;;9.47;54.53;102313.84;4932666;28;100255;-84
2024/03/17 01:56:36;;;;;;;18.45;8.73;;;;;;;9.50;54.42;102319.19;4964246;28;96952;-84
2024/03/17 01:59:01;;;;;;;19.80;8.07;;;;;;;9.56;54.47;102317.66;4948267;28;96962;-84
2024/03/17 02:01:27;;;;;;;17.25;7.65;;;;;;;9.59;54.50;102309.94;4947870;28;100455;-84
2024/03/17 02:03:52;;;;;;;17.65;7.95;;;;;;;9.64;54.44;102308.41;4947634;28;100113;-84
2024/03/17 02:06:18;;;;;;;16.90;7.63;;;;;;;9.67;54.29;102316.38;4949449;28;96714;-84
2024/03/17 02:08:50;;;;;;;19.48;7.60;;;;;;;9.69;54.30;102309.50;4934654;28;97105;-84
2024/03/17 02:11:26;;;;;;;17.92;7.78;;;;;;;9.71;54.15;102313.03;4950041;28;100593;-84
2024/03/17 02:13:53;;;;;;;15.55;6.68;;;;;;;9.76;54.39;102302.81;4950320;28;100661;-84
2024/03/17 02:16:19;;;;;;;13.90;6.93;;;;;;;9.78;54.43;102298.56;4934059;28;97228;-84
2024/03/17 02:18:45;;;;;;;17.50;8.00;;;;;;;9.81;54.29;102290.84;4950420;28;96935;-84
2024/03/17 02:21:15;;;;;;;16.60;7.43;;;;;;;9.83;54.40;102286.59;4936119;28;100777;-84
2024/03/17 02:23:43;;;;;;;18.63;7.65;;;;;;;9.85;54.14;102288.41;4948474;28;97666;-84
2024/03/17 02:26:09;;;;;;;13.90;7.35;;;;;;;9.87;54.23;102297.16;4949735;28;96834;-84
2024/03/17 02:28:39;;;;;;;15.77;6.85;;;;;;;9.89;54.22;102282.50;4950558;28;97009;-84
2024/03/17 02:31:06;;;;;;;15.23;6.50;;;;;;;9.94;54.26;102285.28;4936759;28;100400;-84
2024/03/17 02:33:32;;;;;;;16.05;7.25;;;;;;;9.97;54.34;102284.53;4949798;28;100287;-84
2024/03/17 02:35:57;;;;;;;15.43;6.53;;;;;;;9.99;54.23;102275.03;4932049;28;96760;-84
2024/03/17 02:41:07;;;;;;;16.45;6.93;;;;;;;10.04;54.09;102276.97;4949484;28;100495;-84
2024/03/17 02:43:32;;;;;;;16.60;6.05;;;;;;;10.05;54.19;102276.16;4950353;28;97572;-84
2024/03/17 02:45:58;;;;;;;13.02;6.50;;;;;;;10.08;54.06;102273.66;4949019;28;96818;-85
2024/03/17 02:48:23;;;;;;;16.48;6.53;;;;;;;10.10;54.06;102266.78;4950758;28;96826;-84
2024/03/17 02:50:49;;;;;;;14.55;7.00;;;;;;;10.13;53.93;102265.13;4948585;28;97585;-84
2024/03/17 02:53:14;;;;;;;17.15;6.80;;;;;;;10.14;54.04;102262.56;4948910;28;100154;-84
2024/03/17 02:55:39;;;;;;;14.60;6.32;;;;;;;10.16;53.86;102260.91;4937206;28;96869;-84
2024/03/17 02:58:06;;;;;;;14.85;5.95;;;;;;;10.18;54.16;102266.16;4933808;28;97226;-84
2024/03/17 03:00:32;;;;;;;14.57;6.45;;;;;;;10.21;54.06;102274.09;4949523;28;97715;-85
2024/03/17 03:02:57;;;;;;;15.65;7.43;;;;;;;10.22;53.87;102266.34;4949448;28;97827;-84
2024/03/17 03:05:22;;;;;;;14.35;6.93;;;;;;;10.23;54.02;102268.13;4935605;28;96927;-83
2024/03/17 03:07:48;;;;;;;14.82;6.22;;;;;;;10.26;54.11;102268.22;4949127;28;97061;-83
2024/03/17 03:10:14;;;;;;;14.65;6.78;;;;;;;10.29;54.00;102270.94;4932810;28;100515;-84
2024/03/17 03:12:39;;;;;;;15.60;7.18;;;;;;;10.33;54.02;102276.31;4947412;28;97904;-84
2024/03/17 03:15:05;;;;;;;16.88;6.47;;;;;;;10.34;54.04;102271.16;4932401;28;96982;-84
2024/03/17 03:17:31;;;;;;;16.17;7.03;;;;;;;10.37;53.77;102267.78;4946343;28;96888;-84
2024/03/17 03:19:56;;;;;;;14.80;6.68;;;;;;;10.40;53.94;102270.50;4929476;28;99827;-84
2024/03/17 03:22:21;;;;;;;14.15;7.00;;;;;;;10.41;53.85;102273.16;4956977;28;100335;-84
2024/03/17 03:24:47;;;;;;;14.32;7.20;;;;;;;10.43;54.00;102268.00;4932053;28;96812;-84
2024/03/17 03:27:13;;;;;;;14.60;7.18;;;;;;;10.44;53.99;102260.19;4932926;28;96983;-85
2024/03/17 03:29:38;;;;;;;14.98;6.72;;;;;;;10.46;53.85;102261.19;4950712;28;97835;-84
2024/03/17 03:32:04;;;;;;;17.73;7.10;;;;;;;10.47;53.89;102256.84;4932113;28;100666;-84
2024/03/17 03:34:29;;;;;;;14.93;7.38;;;;;;;10.48;53.53;102255.97;4949640;28;96827;-84
2024/03/17 03:36:56;;;;;;;18.42;6.88;;;;;;;10.50;53.79;102254.34;4938725;28;96954;-84
2024/03/17 03:39:21;;;;;;;12.88;7.15;;;;;;;10.52;53.84;102251.78;4948578;28;100239;-84
2024/03/17 03:41:47;;;;;;;15.10;7.50;;;;;;;10.54;53.97;102255.34;4934796;28;115818;-85
2024/03/17 03:44:13;;;;;;;13.63;6.95;;;;;;;10.57;53.94;102248.50;4949720;28;96774;-85
2024/03/17 03:46:38;;;;;;;14.00;7.15;;;;;;;10.60;53.93;102239.88;4949571;28;96771;-84
2024/03/17 03:49:04;;;;;;;13.77;7.28;;;;;;;10.61;54.04;102233.84;4932768;28;100899;-84
2024/03/17 03:51:29;;;;;;;13.65;7.38;;;;;;;10.62;54.03;102233.91;4937202;28;99833;-85
2024/03/17 03:53:55;;;;;;;16.75;7.30;;;;;;;10.66;53.94;102227.06;4965797;28;96861;-85
2024/03/17 03:56:20;;;;;;;15.63;8.18;;;;;;;10.67;53.96;102221.00;4949220;28;96964;-85
2024/03/17 03:58:46;;;;;;;13.30;6.97;;;;;;;10.69;53.73;102210.63;4950140;28;97881;-85
2024/03/17 04:01:12;;;;;;;17.25;7.43;;;;;;;10.70;53.78;102213.28;4949135;28;100454;-84
2024/03/17 04:03:37;;;;;;;12.88;6.78;;;;;;;10.72;53.74;102195.94;4947030;28;96893;-84
2024/03/17 04:06:11;;;;;;;14.45;7.25;;;;;;;10.71;53.86;102207.22;4952221;28;97025;-84
2024/03/17 04:08:39;;;;;;;14.77;7.30;;;;;;;10.74;53.71;102194.28;4935804;28;100558;-84
2024/03/17 04:11:05;;;;;;;16.90;7.68;;;;;;;10.76;53.89;102200.41;4968699;28;97408;-84
2024/03/17 04:13:31;;;;;;;17.63;7.30;;;;;;;10.79;53.85;102197.94;4952477;28;96889;-84
2024/03/17 04:15:58;;;;;;;14.38;6.68;;;;;;;10.83;53.95;102194.56;4941019;28;96987;-84
2024/03/17 04:18:24;;;;;;;13.95;7.40;;;;;;;10.85;53.97;102195.53;4951771;28;100969;-84
2024/03/17 04:20:54;;;;;;;16.73;7.95;;;;;;;10.89;53.80;102200.84;4954703;28;100771;-84
2024/03/17 04:23:21;;;;;;;15.73;7.03;;;;;;;10.92;53.88;102203.56;4949190;28;96787;-84
2024/03/17 04:25:47;;;;;;;14.43;7.10;;;;;;;10.92;53.75;102194.00;4953001;28;97039;-84
2024/03/17 04:28:14;;;;;;;14.75;7.70;;;;;;;10.95;53.66;102193.22;4948942;28;97704;-84
2024/03/17 04:30:40;;;;;;;12.35;7.38;;;;;;;10.97;53.56;102184.59;4937258;28;100624;-83
2024/03/17 04:33:06;;;;;;;12.95;7.28;;;;;;;10.98;53.28;102180.25;4934740;28;96817;-83
2024/03/17 04:35:38;;;;;;;12.60;6.65;;;;;;;10.99;53.51;102179.41;4953855;28;96896;-84
2024/03/17 04:38:05;;;;;;;14.00;6.88;;;;;;;11.00;53.58;102173.38;4949736;28;100517;-84
2024/03/17 04:40:35;;;;;;;16.75;6.97;;;;;;;11.00;53.39;102181.22;4937764;28;100686;-84
2024/03/17 04:43:01;;;;;;;16.08;6.82;;;;;;;11.00;53.39;102171.63;4950121;28;96876;-84
2024/03/17 04:45:26;;;;;;;14.55;7.55;;;;;;;11.00;53.38;102182.09;4935456;28;96927;-84
2024/03/17 04:47:52;;;;;;;16.92;7.38;;;;;;;11.00;53.22;102186.44;4938274;28;100589;-83
2024/03/17 04:50:18;;;;;;;15.50;7.40;;;;;;;11.03;53.47;102196.94;4950309;28;97467;-84
2024/03/17 04:52:43;;;;;;;14.88;7.38;;;;;;;11.05;53.28;102192.66;4965581;28;96739;-84
2024/03/17 04:55:09;;;;;;;16.92;7.75;;;;;;;11.03;53.63;102191.72;4935319;28;97110;-84
2024/03/17 04:57:35;;;;;;;15.48;7.80;;;;;;;11.03;53.41;102194.34;4935858;28;100038;-85
2024/03/17 05:00:02;;;;;;;14.32;7.35;;;;;;;11.04;53.29;102196.13;4934482;28;100236;-84
2024/03/17 05:02:28;;;;;;;17.45;7.78;;;;;;;11.05;53.43;102195.25;4951718;28;96966;-84
2024/03/17 05:04:54;;;;;;;13.90;6.93;;;;;;;11.07;53.39;102188.41;4935051;28;98111;-85
2024/03/17 05:07:20;;;;;;;13.95;7.20;;;;;;;11.07;53.25;102188.41;4951550;28;100379;-84
2024/03/17 05:09:45;;;;;;;15.30;7.65;;;;;;;11.07;53.26;102183.19;4951481;28;99896;-84
2024/03/17 05:12:11;;;;;;;15.68;7.47;;;;;;;11.08;53.21;102182.31;4950931;28;96889;-84
2024/03/17 05:14:36;;;;;;;15.98;7.28;;;;;;;11.07;53.18;102175.34;4951578;28;96843;-84
2024/03/17 05:17:02;;;;;;;16.55;7.68;;;;;;;11.08;53.01;102184.06;4936148;28;99478;-83
2024/03/17 05:19:27;;;;;;;14.98;8.13;;;;;;;11.08;53.20;102179.72;4948023;28;100035;-84
2024/03/17 05:21:53;;;;;;;14.18;7.18;;;;;;;11.06;53.16;102176.16;4950930;28;96850;-84
2024/03/17 05:24:21;;;;;;;14.85;7.75;;;;;;;11.04;53.23;102183.06;4933456;28;98166;-84
2024/03/17 05:26:46;;;;;;;15.80;8.32;;;;;;;11.04;53.21;102177.84;4951071;28;100826;-84
2024/03/17 05:29:12;;;;;;;16.67;8.48;;;;;;;11.04;53.11;102172.63;4950877;28;100776;-84
2024/03/17 05:31:39;;;;;;;15.60;7.53;;;;;;;11.03;53.20;102166.53;4951039;28;96776;-84
2024/03/17 05:34:07;;;;;;;16.65;8.18;;;;;;;11.04;53.21;102159.56;4951419;28;97005;-83
2024/03/17 05:36:33;;;;;;;13.90;7.43;;;;;;;11.04;53.12;102167.41;4950729;28;100594;-83
2024/03/17 05:38:59;;;;;;;15.00;6.90;;;;;;;11.03;53.25;102166.53;4950575;28;100508;-83
2024/03/17 05:41:26;;;;;;;14.70;7.88;;;;;;;11.02;53.08;102176.91;4937195;28;96872;-83
2024/03/17 05:43:51;;;;;;;14.55;7.05;;;;;;;11.02;53.24;102172.56;4932848;28;96917;-83
2024/03/17 05:46:17;;;;;;;15.77;7.68;;;;;;;11.03;53.21;102170.84;4931804;28;100928;-84
2024/03/17 05:48:43;;;;;;;14.43;7.13;;;;;;;11.02;52.98;102175.19;4947930;28;97429;-84
2024/03/17 05:51:12;;;;;;;13.73;7.40;;;;;;;11.01;53.12;102175.13;4949599;28;96893;-84
2024/03/17 05:53:43;;;;;;;14.93;7.32;;;;;;;10.99;53.06;102177.69;4947253;28;96879;-84
2024/03/17 05:56:11;;;;;;;14.07;6.93;;;;;;;10.99;53.13;102179.41;4950088;28;97927;-84
2024/03/17 05:58:37;;;;;;;17.02;7.38;;;;;;;11.00;53.19;102181.22;4932069;28;100880;-84
2024/03/17 06:01:03;;;;;;;15.10;7.75;;;;;;;10.99;53.14;102182.91;4948000;28;96935;-84
2024/03/17 06:03:29;;;;;;;14.25;7.57;;;;;;;11.00;52.83;102186.44;4950027;28;96861;-84
2024/03/17 06:05:54;;;;;;;14.70;7.60;;;;;;;10.99;53.10;102182.03;4948978;28;100478;-84
2024/03/17 06:08:20;;;;;;;14.43;7.55;;;;;;;11.00;53.21;102186.44;4949892;28;102619;-82
2024/03/17 06:10:47;;;;;;;12.98;7.13;;;;;;;11.01;53.20;102177.75;4934587;28;96797;-84
2024/03/17 06:13:16;;;;;;;17.10;7.40;;;;;;;11.01;53.20;102183.84;4938758;28;96791;-84
2024/03/17 06:15:43;;;;;;;20.40;7.72;;;;;;;11.04;53.18;102183.94;4932919;28;100854;-84
2024/03/17 06:18:14;;;;;;;13.90;7.13;;;;;;;11.05;53.32;102180.50;4947625;28;97903;-84
2024/03/17 06:20:44;;;;;;;12.85;7.25;;;;;;;11.07;53.29;102172.72;4949806;28;97187;-83
2024/03/17 06:23:16;;;;;;;15.45;7.35;;;;;;;11.10;53.24;102169.31;4949860;28;96827;-83
2024/03/17 06:25:44;;;;;;;13.48;7.38;;;;;;;11.11;53.25;102168.50;4948297;28;99924;-84
2024/03/17 06:28:13;;;;;;;15.50;7.18;;;;;;;11.12;53.11;102170.25;4947094;28;100340;-83
2024/03/17 06:30:48;;;;;;;;;;;;;;;11.13;53.33;102170.31;4949546;28;96889;-84
2024/03/17 06:33:15;;;;;;;12.35;7.45;;;;;;;11.19;53.27;102172.22;4949443;28;97226;-84
2024/03/17 06:35:41;;;;;;;17.05;8.05;;;;;;;11.21;53.38;102175.75;4949963;28;100156;-85
2024/03/17 06:38:09;;;;;;;14.40;7.55;;;;;;;11.21;53.27;102171.44;4950366;28;100179;-84
2024/03/17 06:40:38;;;;;;;14.43;7.28;;;;;;;11.23;53.34;102174.97;4948869;28;96748;-83
2024/03/17 06:43:04;;;;;;;16.80;7.78;;;;;;;11.24;53.35;102179.34;4967508;28;96781;-83
2024/03/17 06:45:29;;;;;;;14.38;8.10;;;;;;;11.28;53.68;102182.94;4947771;28;100251;-84
2024/03/17 06:47:55;;;;;;;14.10;7.47;;;;;;;11.31;53.41;102183.03;4951299;28;99797;-84
2024/03/17 06:50:21;;;;;;;15.38;8.27;;;;;;;11.35;53.18;102173.56;4950157;28;96839;-84
2024/03/17 06:52:47;;;;;;;15.35;8.30;;;;;;;11.39;53.27;102172.81;4941330;28;96879;-84
2024/03/17 06:55:12;;;;;;;16.15;9.05;;;;;;;11.40;53.10;102172.00;4930057;28;100603;-85
2024/03/17 06:57:38;;;;;;;15.73;8.75;;;;;;;11.41;53.09;102166.81;4949610;28;99793;-83
2024/03/17 07:00:05;;;;;;;14.77;8.55;;;;;;;11.45;53.22;102166.91;4949215;28;96875;-83
2024/03/17 07:02:32;;;;;;;19.77;8.35;;;;;;;11.47;53.11;102166.09;4947082;28;96940;-84
2024/03/17 07:04:57;;;;;;;15.55;8.48;;;;;;;11.50;53.18;102181.00;4929018;28;100614;-84
2024/03/17 07:07:23;;;;;;;16.45;7.97;;;;;;;11.52;53.10;102171.50;4946457;28;100173;-83
2024/03/17 07:09:48;;;;;;;15.20;8.63;;;;;;;11.57;53.07;102172.50;4929909;28;96879;-85
2024/03/17 07:12:14;;;;;;;17.13;8.20;;;;;;;11.59;53.06;102176.94;4935503;28;97061;-85
2024/03/17 07:14:39;;;;;;;18.38;8.60;;;;;;;11.63;53.16;102180.53;4947751;28;99883;-86
2024/03/17 07:17:05;;;;;;;15.30;8.27;;;;;;;11.68;53.25;102178.06;4931088;28;100792;-85
2024/03/17 07:19:35;;;;;;;16.50;8.85;;;;;;;11.71;53.17;102175.50;4947055;28;96810;-85
2024/03/17 07:22:01;;;;;;;14.75;8.00;;;;;;;11.77;53.24;102176.56;4944352;28;96872;-85
2024/03/17 07:24:27;;;;;;;13.90;8.15;;;;;;;11.82;53.38;102167.16;4946885;28;97705;-86
2024/03/17 07:26:53;;;;;;;18.60;8.40;;;;;;;11.88;53.03;102166.44;4933282;28;100132;-86
2024/03/17 07:29:19;;;;;;;17.08;9.55;;;;;;;11.90;53.17;102159.53;4935046;28;96886;-87
2024/03/17 07:31:44;;;;;;;16.05;9.10;;;;;;;11.93;52.85;102159.63;4932151;28;97037;-86
2024/03/17 07:34:10;;;;;;;19.52;10.07;;;;;;;11.96;52.88;102159.72;4936228;28;100098;-86
2024/03/17 07:36:36;;;;;;;13.57;8.50;;;;;;;12.00;52.92;102163.31;4947492;28;100777;-86
2024/03/17 07:39:02;;;;;;;16.90;8.68;;;;;;;12.03;53.01;102167.72;4948451;28;97150;-86
2024/03/17 07:41:27;;;;;;;16.45;8.73;;;;;;;12.05;53.04;102166.03;4934635;28;97146;-85
2024/03/17 07:43:53;;;;;;;16.30;8.13;;;;;;;12.09;53.01;102163.56;4937051;28;100455;-86
2024/03/17 07:46:18;;;;;;;16.90;8.93;;;;;;;12.16;53.03;102164.63;4933609;28;100623;-86
2024/03/17 07:48:44;;;;;;;17.73;9.02;;;;;;;12.24;53.05;102155.22;4947739;28;96848;-85
2024/03/17 07:51:13;;;;;;;14.52;8.48;;;;;;;12.32;53.07;102164.19;4932921;28;96877;-85
2024/03/17 07:53:41;;;;;;;16.23;8.05;;;;;;;12.38;53.10;102153.00;4950247;28;100478;-85
2024/03/17 07:56:12;;;;;;;16.25;8.70;;;;;;;12.41;52.75;102146.97;4951411;28;97345;-86
2024/03/17 07:58:42;;;;;;;14.30;8.85;;;;;;;12.44;52.76;102147.94;4932400;28;96847;-86
2024/03/17 08:01:12;;;;;;;16.48;8.93;;;;;;;12.49;52.66;102150.66;4933027;28;96803;-86
2024/03/17 08:03:40;;;;;;;13.85;8.18;;;;;;;12.53;52.97;102157.72;4948003;28;100425;-87
2024/03/17 08:06:07;;;;;;;15.88;8.40;;;;;;;12.59;53.08;102159.63;4947380;28;100145;-86
2024/03/17 08:08:34;;;;;;;14.20;8.90;;;;;;;12.66;52.78;102159.81;4931851;28;96934;-89
2024/03/17 08:11:00;;;;;;;18.60;8.32;;;;;;;12.70;52.68;102161.66;4941035;28;96996;-86
2024/03/17 08:13:28;;;;;;;15.55;9.35;;;;;;;12.72;52.42;102159.06;4936210;28;100787;-88
2024/03/17 08:16:02;;;;;;;15.68;8.40;;;;;;;12.73;52.47;102155.63;4952665;28;100570;-87
2024/03/17 08:18:28;;;;;;;14.48;8.27;;;;;;;12.72;52.54;102152.09;4950307;28;96833;-88
2024/03/17 08:20:54;;;;;;;15.23;8.63;;;;;;;12.73;52.51;102156.50;4950921;28;96975;-88
2024/03/17 08:23:20;;;;;;;15.70;8.73;;;;;;;12.73;52.43;102148.66;4951278;28;100356;-89
2024/03/17 08:25:53;;;;;;;17.73;8.35;;;;;;;12.74;52.48;102142.56;4934125;28;100243;-86
2024/03/17 08:28:19;;;;;;;15.23;8.10;;;;;;;12.79;52.53;102149.66;4949976;28;96927;-88
2024/03/17 08:30:53;;;;;;;16.67;8.93;;;;;;;12.79;52.36;102142.66;4950303;28;97028;-87
2024/03/17 08:33:18;;;;;;;18.30;8.70;;;;;;;12.81;52.45;102147.94;4949618;28;100812;-89
2024/03/17 08:35:53;;;;;;;15.57;8.63;;;;;;;12.82;52.42;102154.97;4949457;28;100710;-87
2024/03/17 08:38:20;;;;;;;15.32;8.55;;;;;;;12.85;52.77;102155.94;4949306;28;96917;-88
2024/03/17 08:40:47;;;;;;;17.80;9.27;;;;;;;12.91;52.79;102152.56;4933353;28;97194;-87
2024/03/17 08:43:12;;;;;;;15.93;8.45;;;;;;;12.99;52.67;102156.22;4949181;28;100317;-87
2024/03/17 08:45:38;;;;;;;14.82;8.43;;;;;;;13.05;52.27;102150.28;4937140;28;100377;-88
2024/03/17 08:48:03;;;;;;;15.68;8.70;;;;;;;13.11;52.59;102153.03;4951728;28;96795;-88
2024/03/17 08:50:33;;;;;;;14.70;8.48;;;;;;;13.16;52.53;102140.91;4949128;28;97502;-88
2024/03/17 08:52:58;;;;;;;;;;;;;;;13.17;52.79;102147.03;4934922;28;99928;-88
2024/03/17 08:55:23;;;;;;;17.10;8.20;;;;;;;13.25;52.78;102138.50;4950094;28;100309;-87
2024/03/17 08:57:49;;;;;;;18.13;9.23;;;;;;;13.32;52.76;102143.06;4952873;28;96790;-90
2024/03/17 09:00:14;;;;;;;15.98;8.15;;;;;;;13.38;52.68;102146.66;4939980;28;97007;-90
2024/03/17 09:02:41;;;;;;;16.85;8.93;;;;;;;13.43;52.56;102148.53;4951367;28;100742;-91
2024/03/17 09:05:07;;;;;;;16.08;8.75;;;;;;;13.44;52.38;102142.44;4953870;28;100332;-88
2024/03/17 09:07:32;;;;;;;14.82;8.35;;;;;;;13.48;52.32;102143.41;4951088;28;96965;-90
2024/03/17 09:09:59;;;;;;;14.50;8.63;;;;;;;13.52;52.25;102133.00;4950772;28;96921;-89
2024/03/17 09:12:25;;;;;;;16.30;8.60;;;;;;;13.57;51.88;102137.47;4939466;28;99931;-91
2024/03/17 09:14:51;;;;;;;15.27;8.38;;;;;;;13.58;51.99;102134.84;4953065;28;100019;-91
2024/03/17 09:17:19;;;;;;;16.90;8.07;;;;;;;13.59;51.99;102130.50;4954299;28;96791;-92
2024/03/17 09:19:44;;;;;;;13.45;8.10;;;;;;;13.63;52.05;102133.22;4951996;28;96925;-91
2024/03/17 09:22:10;;;;;;;15.68;9.43;;;;;;;13.67;51.92;102140.31;4936646;28;101038;-92
2024/03/17 09:24:36;;;;;;;14.88;7.93;;;;;;;13.70;52.13;102135.09;4951076;28;99432;-93
2024/03/17 09:27:01;;;;;;;16.15;9.02;;;;;;;13.74;51.91;102130.81;4951269;28;96908;-87
2024/03/17 09:29:27;;;;;;;14.77;8.60;;;;;;;13.77;52.02;102136.13;4950705;28;96976;-88
2024/03/17 09:31:52;;;;;;;16.73;9.32;;;;;;;13.83;51.97;102135.34;4936931;28;100613;-89
2024/03/17 09:34:18;;;;;;;15.88;8.43;;;;;;;13.88;52.06;102134.59;4936830;28;99518;-89
2024/03/17 09:36:44;;;;;;;16.30;8.05;;;;;;;13.94;51.96;102130.31;4953192;28;96861;-89
2024/03/17 09:39:11;;;;;;;15.73;8.07;;;;;;;13.99;51.80;102126.03;4953898;28;96944;-89
2024/03/17 09:41:38;;;;;;;16.13;8.48;;;;;;;14.07;51.85;102121.84;4944731;28;100325;-90
2024/03/17 09:44:06;;;;;;;15.18;8.80;;;;;;;14.17;52.24;102120.25;4950651;28;97871;-88
2024/03/17 09:46:33;;;;;;;13.32;7.88;;;;;;;14.29;52.08;102104.72;4945766;28;96880;-87
2024/03/17 09:48:59;;;;;;;13.52;8.07;;;;;;;14.39;51.80;102108.41;4931327;28;97029;-86
2024/03/17 09:51:25;;;;;;;14.00;8.32;;;;;;;14.42;51.59;102111.97;4947240;28;101182;-90
2024/03/17 09:53:51;;;;;;;15.18;7.25;;;;;;;14.46;51.41;102118.16;4932329;28;100542;-82
2024/03/17 09:56:19;;;;;;;15.88;8.13;;;;;;;14.47;51.47;102119.91;4948819;28;96926;-84
2024/03/17 09:58:49;;;;;;;14.65;7.65;;;;;;;14.45;51.21;102117.25;4951100;28;97705;-85
2024/03/17 10:01:14;;;;;;;;;;;;;;;14.46;51.49;102115.53;4963964;28;97444;-83
2024/03/17 10:04:03;;;;;;;13.70;8.23;;;;;;;14.51;51.33;102119.13;4951170;28;100428;-83
2024/03/17 10:06:31;;;;;;;14.85;8.25;;;;;;;14.55;51.64;102118.31;4943308;28;97479;-87
2024/03/17 10:08:58;;;;;;;15.30;7.68;;;;;;;14.61;51.55;102113.16;4939459;28;98077;-84
2024/03/17 10:11:31;;;;;;;14.63;8.30;;;;;;;14.70;51.94;102106.31;4937770;28;100592;-83
2024/03/17 10:14:04;;;;;;;13.07;7.65;;;;;;;14.82;51.80;102102.13;4949775;28;99778;-84
2024/03/17 10:16:31;;;;;;;14.27;7.53;;;;;;;14.98;52.02;102103.22;4966055;28;96920;-83
2024/03/17 10:19:24;;;;;;;16.40;8.00;;;;;;;15.15;51.88;102087.72;4935284;28;97075;-87
2024/03/17 10:21:57;;;;;;;14.07;7.60;;;;;;;15.41;51.85;102095.91;4874774;28;100386;-83
2024/03/17 10:24:28;;;;;;;17.55;8.20;;;;;;;15.68;51.49;102083.97;4858204;28;100058;-84
2024/03/17 10:26:56;;;;;;;12.65;7.38;;;;;;;15.89;50.85;102096.50;4858186;28;97332;-83
2024/03/17 10:29:30;;;;;;;13.75;7.15;;;;;;;16.02;50.57;102097.50;4858845;28;97238;-83
2024/03/17 10:32:02;;;;;;;14.32;7.32;;;;;;;16.10;50.29;102087.06;4858537;28;99607;-87
2024/03/17 10:34:34;;;;;;;13.80;7.55;;;;;;;16.13;49.91;102087.97;4858765;28;100586;-87
2024/03/17 10:37:12;;;;;;;15.02;7.45;;;;;;;16.15;49.81;102083.63;4856956;28;96971;-87
2024/03/17 10:39:38;;;;;;;17.15;7.75;;;;;;;16.22;49.77;102081.03;4857993;28;97097;-87
2024/03/17 10:42:05;;;;;;;12.02;7.40;;;;;;;16.29;49.80;102083.75;4873024;28;97956;-87
2024/03/17 10:44:32;;;;;;;12.38;7.28;;;;;;;16.41;49.96;102079.44;4872945;28;100469;-87
2024/03/17 10:47:01;;;;;;;12.80;7.57;;;;;;;16.60;49.97;102078.72;4874037;28;96949;-87
2024/03/17 10:49:31;;;;;;;14.15;7.10;;;;;;;16.73;49.49;102071.75;4858172;28;97091;-87
2024/03/17 10:52:05;;;;;;;13.73;7.50;;;;;;;16.88;49.75;102063.09;4872394;28;100514;-86
2024/03/17 10:54:32;;;;;;;14.02;7.65;;;;;;;17.06;49.01;102067.63;4875958;28;98037;-88
2024/03/17 10:57:21;;;;;;;13.48;7.28;;;;;;;17.15;48.84;102067.66;4875268;28;96991;-88
2024/03/17 10:59:48;;;;;;;12.07;6.82;;;;;;;17.22;48.56;102060.63;4923839;28;96899;-89
2024/03/17 11:02:24;;;;;;;12.02;7.05;;;;;;;17.23;48.09;102070.31;4935182;28;100914;-87
2024/03/17 11:04:56;;;;;;;12.15;6.85;;;;;;;17.28;48.05;102065.94;4945787;28;100569;-88
2024/03/17 11:07:22;;;;;;;11.38;6.60;;;;;;;17.31;47.76;102058.06;4945219;28;96945;-87
2024/03/17 11:09:48;;;;;;;19.63;8.25;;;;;;;17.35;48.12;102058.94;4946692;28;96983;-87
2024/03/17 11:12:44;;;;;;;13.55;7.38;;;;;;;17.40;48.01;102051.94;4947432;28;100672;-87
2024/03/17 11:15:18;;;;;;;11.73;6.55;;;;;;;17.43;47.53;102058.09;4923104;28;100513;-87
2024/03/17 11:17:44;;;;;;;13.13;7.00;;;;;;;17.45;47.43;102056.34;4936231;28;96950;-87
2024/03/17 11:20:25;;;;;;;12.13;7.55;;;;;;;17.40;47.12;102059.84;4938512;28;97080;-87